Ariana — C6DM3 — position and weather

sailwx.info

Track history (hours):
 
Tides and Currents Weather Stations Pressure Air Temp Water Temp Dewpoint Dewpoint Depression Visibility Wind Speed Wind Dir Waves Ship Positions

Ariana

Last reported at 2019-Jul-01 07:08 UTC. Time now 2019-Aug-24 22:34 UTC.
Position S 34°21' E 017°25'.
Warning: this ship's position is 54 days out of date.

Length 229 m; draft 9.1 m.

Type: Cargo ship. MMSI: 311000716.

Date/timePositionNaut miles runAvg speedWind from/ knotsBaromVisibWave heightAir tempDewpointWater temp
2019-Jul-01 07:08S 34°21' E 017°25'212.4
2019-Jul-01 06:58S 34°22' E 017°27'612.6
2019-Jul-01 06:28S 34°24' E 017°34'612.4
2019-Jul-01 05:58S 34°26' E 017°42'612.4
2019-Jul-01 05:30S 34°28' E 017°48'612.4
2019-Jul-01 04:59S 34°30' E 017°56'712.5
2019-Jul-01 04:28S 34°32' E 018°03'712.2
2019-Jul-01 03:56S 34°34' E 018°11'512.3
2019-Jul-01 03:30S 34°36' E 018°17'611.6
2019-Jul-01 03:00S 34°38' E 018°23'611.2
2019-Jul-01 02:30S 34°39' E 018°30'911.8
2019-Jul-01 01:46S 34°42' E 018°40'311.7
2019-Jul-01 01:30S 34°43' E 018°44'611.8
2019-Jul-01 00:57S 34°45' E 018°51'611.8
2019-Jul-01 00:29S 34°46' E 018°58'711.6
2019-Jun-30 23:50S 34°48' E 019°06'  
Track history (hours):
 
Tides and Currents Weather Stations Pressure Air Temp Water Temp Dewpoint Dewpoint Depression Visibility Wind Speed Wind Dir Waves Ship Positions

Ariana

Last reported at 2019-Jul-01 07:08 UTC. Time now 2019-Aug-24 22:34 UTC.
Position S 34°21' E 017°25'.
Warning: this ship's position is 54 days out of date.

Length 229 m; draft 9.1 m.

Type: Cargo ship. MMSI: 311000716.

Date/timePositionNaut miles runAvg speedWind from/ knotsBaromVisibWave heightAir tempDewpointWater temp
2019-Jul-01 07:08S 34°21' E 017°25'212.4
2019-Jul-01 06:58S 34°22' E 017°27'612.6
2019-Jul-01 06:28S 34°24' E 017°34'612.4
2019-Jul-01 05:58S 34°26' E 017°42'612.4
2019-Jul-01 05:30S 34°28' E 017°48'612.4
2019-Jul-01 04:59S 34°30' E 017°56'712.5
2019-Jul-01 04:28S 34°32' E 018°03'712.2
2019-Jul-01 03:56S 34°34' E 018°11'512.3
2019-Jul-01 03:30S 34°36' E 018°17'611.6
2019-Jul-01 03:00S 34°38' E 018°23'611.2
2019-Jul-01 02:30S 34°39' E 018°30'911.8
2019-Jul-01 01:46S 34°42' E 018°40'311.7
2019-Jul-01 01:30S 34°43' E 018°44'611.8
2019-Jul-01 00:57S 34°45' E 018°51'611.8
2019-Jul-01 00:29S 34°46' E 018°58'711.6
2019-Jun-30 23:50S 34°48' E 019°06'  

Dump ship's entire track history